createdAt,value
2018-08-13T09:02:52.749Z,27.65
2018-08-13T09:05:21.427Z,27.81
2018-08-13T09:07:49.989Z,27.87
2018-08-13T09:10:21.298Z,27.93
2018-08-13T09:12:49.943Z,27.94
2018-08-13T09:15:18.679Z,27.99
2018-08-13T09:17:59.143Z,28.12
2018-08-13T09:20:38.909Z,28.24
2018-08-13T09:23:18.456Z,28.14
2018-08-13T09:25:58.191Z,28.00
2018-08-13T09:28:37.979Z,27.98
2018-08-13T09:31:18.899Z,28.12
2018-08-13T09:33:58.487Z,28.20
2018-08-13T09:36:27.083Z,28.26
2018-08-13T09:38:55.661Z,28.33
2018-08-13T09:41:24.455Z,28.58
2018-08-13T09:43:53.013Z,28.67
2018-08-13T09:46:21.748Z,28.76
2018-08-13T09:48:50.322Z,28.99
2018-08-13T09:51:19.204Z,29.05
2018-08-13T09:53:48.689Z,29.16
2018-08-13T09:56:18.257Z,29.25
2018-08-13T09:58:46.816Z,29.37
2018-08-13T10:01:15.432Z,29.32
2018-08-13T10:03:43.964Z,29.40
2018-08-13T10:06:12.553Z,29.66
2018-08-13T10:08:41.264Z,29.74
2018-08-13T10:11:09.838Z,29.76
2018-08-13T10:13:38.419Z,29.80
2018-08-13T10:16:06.965Z,29.81
2018-08-13T10:18:35.532Z,29.94
2018-08-13T10:21:04.140Z,30.05
2018-08-13T10:23:33.011Z,30.12
2018-08-13T10:26:01.551Z,30.35
2018-08-13T10:28:30.243Z,30.41
2018-08-13T10:30:59.669Z,30.51
2018-08-13T10:33:28.204Z,30.70
2018-08-13T10:35:56.840Z,30.72
2018-08-13T10:41:17.358Z,30.81
2018-08-13T10:43:46.056Z,30.90
2018-08-13T10:46:14.949Z,31.02
2018-08-13T10:48:43.535Z,31.08
2018-08-13T10:51:12.149Z,31.01
2018-08-13T10:53:40.727Z,31.12
2018-08-13T10:56:10.325Z,31.15
2018-08-13T10:58:38.925Z,31.15
2018-08-13T11:01:11.245Z,31.25
2018-08-13T11:03:39.962Z,31.30
2018-08-13T11:06:08.695Z,31.37
2018-08-13T11:08:37.574Z,31.52
2018-08-13T11:11:06.248Z,31.40
2018-08-13T11:13:41.109Z,31.60
2018-08-13T11:16:09.861Z,31.68
2018-08-13T11:18:38.400Z,31.74
2018-08-13T11:21:06.986Z,31.89
2018-08-13T11:23:35.666Z,32.02
2018-08-13T11:26:04.360Z,32.20
2018-08-13T11:28:32.951Z,32.33
2018-08-13T11:31:01.600Z,32.41
2018-08-13T11:33:30.392Z,32.29
2018-08-13T11:35:59.024Z,32.25
2018-08-13T11:38:27.576Z,32.27
2018-08-13T11:40:56.372Z,32.52
2018-08-13T11:43:24.938Z,32.65
2018-08-13T11:45:53.507Z,32.76
2018-08-13T11:48:22.108Z,32.68
2018-08-13T11:50:50.688Z,32.61
2018-08-13T11:53:19.281Z,32.53
2018-08-13T11:55:47.840Z,32.69
2018-08-13T11:58:16.375Z,32.92
2018-08-13T12:00:44.989Z,33.03
2018-08-13T12:03:13.612Z,33.19
2018-08-13T12:05:42.219Z,33.38
2018-08-13T12:08:10.811Z,33.41
2018-08-13T12:10:39.400Z,33.21
2018-08-13T12:13:08.191Z,33.30
2018-08-13T12:15:36.793Z,33.17
2018-08-13T12:18:06.384Z,33.51
2018-08-13T12:20:35.044Z,33.78
2018-08-13T12:23:03.674Z,33.96
2018-08-13T12:25:32.898Z,33.80
2018-08-13T12:28:01.552Z,33.20
2018-08-13T12:30:30.191Z,33.28
2018-08-13T12:32:58.855Z,33.33
2018-08-13T12:35:27.478Z,33.36
2018-08-13T12:37:56.019Z,33.39
2018-08-13T12:40:25.215Z,33.42
2018-08-13T12:42:53.847Z,33.47
2018-08-13T12:45:22.605Z,33.54
2018-08-13T12:47:51.258Z,33.29
2018-08-13T12:50:21.078Z,33.27
2018-08-13T12:52:50.888Z,33.37
2018-08-13T12:55:19.577Z,33.32
2018-08-13T12:57:48.647Z,33.30
2018-08-13T13:00:18.478Z,33.33
2018-08-13T13:02:47.130Z,33.45
2018-08-13T13:05:17.163Z,33.69
2018-08-13T13:07:45.955Z,33.88
2018-08-13T13:10:15.909Z,33.83
2018-08-13T13:12:44.900Z,33.64
2018-08-13T13:15:15.206Z,33.86
2018-08-13T13:17:43.812Z,34.11
2018-08-13T13:20:16.847Z,34.31
2018-08-13T13:22:45.628Z,34.46
2018-08-13T13:25:15.485Z,34.58
2018-08-13T13:27:44.984Z,34.56
2018-08-13T13:30:15.289Z,34.54
2018-08-13T13:32:44.664Z,34.62
2018-08-13T13:35:15.260Z,34.66
2018-08-13T13:37:44.418Z,34.70
2018-08-13T13:40:15.512Z,34.71
2018-08-13T13:42:44.288Z,34.69
2018-08-13T13:45:13.850Z,34.71
2018-08-13T13:47:42.395Z,34.87
2018-08-13T13:50:13.473Z,34.98
2018-08-13T13:52:42.241Z,35.07
2018-08-13T13:55:10.862Z,34.95
2018-08-13T13:57:39.476Z,34.92
2018-08-13T14:00:17.304Z,35.03
2018-08-13T14:02:47.240Z,34.91
2018-08-13T14:05:15.885Z,34.19
2018-08-13T14:07:44.687Z,34.23
2018-08-13T14:10:15.443Z,33.99
2018-08-13T14:12:44.748Z,33.88
2018-08-13T14:15:14.854Z,33.65
2018-08-13T14:17:43.949Z,33.54
2018-08-13T14:20:12.568Z,33.62
2018-08-13T14:22:41.271Z,33.72
2018-08-13T14:25:11.769Z,33.70
2018-08-13T14:27:40.732Z,33.80
2018-08-13T14:30:26.223Z,33.75
2018-08-13T14:32:54.872Z,33.52
2018-08-13T14:35:24.731Z,33.49
2018-08-13T14:37:53.473Z,33.31
2018-08-13T14:40:22.101Z,33.27
2018-08-13T14:42:50.667Z,33.12
2018-08-13T14:45:19.887Z,33.05
2018-08-13T14:47:50.095Z,32.87
2018-08-13T14:50:18.772Z,32.82
2018-08-13T14:52:48.337Z,32.64
2018-08-13T14:55:21.214Z,32.73
2018-08-13T14:57:49.890Z,32.56
2018-08-13T15:00:26.885Z,32.60
2018-08-13T15:02:56.088Z,32.71
2018-08-13T15:05:24.702Z,32.63
2018-08-13T15:07:53.290Z,32.55
2018-08-13T15:10:23.365Z,32.75
2018-08-13T15:12:52.042Z,32.84
2018-08-13T15:15:20.596Z,33.07
2018-08-13T15:17:49.712Z,33.17
2018-08-13T15:20:21.737Z,33.44
2018-08-13T15:22:50.359Z,33.57
2018-08-13T15:25:18.907Z,33.68
2018-08-13T15:27:47.574Z,33.77
2018-08-13T15:30:17.256Z,33.86
2018-08-13T15:32:47.050Z,33.96
2018-08-13T15:35:15.649Z,33.99
2018-08-13T15:37:44.946Z,33.89
2018-08-13T15:40:13.635Z,33.78
2018-08-13T15:42:42.238Z,33.78
2018-08-13T15:45:19.596Z,33.87
2018-08-13T15:47:48.953Z,33.82
2018-08-13T15:50:18.723Z,33.84
2018-08-13T15:52:47.948Z,33.73
2018-08-13T15:55:16.709Z,33.67
2018-08-13T15:57:45.784Z,33.54
2018-08-13T16:00:20.948Z,33.58
2018-08-13T16:02:50.036Z,33.56
2018-08-13T16:05:19.040Z,33.52
2018-08-13T16:07:48.249Z,33.67
2018-08-13T16:10:17.601Z,33.79
2018-08-13T16:12:46.663Z,33.77
2018-08-13T16:15:15.388Z,33.66
2018-08-13T16:20:48.817Z,33.69
2018-08-13T16:23:17.426Z,33.48
2018-08-13T16:25:46.015Z,33.39
2018-08-13T16:28:14.608Z,32.84
2018-08-13T16:30:43.151Z,33.34
2018-08-13T16:33:11.732Z,33.36
2018-08-13T16:35:40.309Z,33.23
2018-08-13T16:38:08.868Z,33.13
2018-08-13T16:40:37.449Z,33.28
2018-08-13T16:43:06.324Z,33.35
2018-08-13T16:45:34.879Z,33.26
2018-08-13T16:48:03.483Z,33.16
2018-08-13T16:50:33.576Z,33.03
2018-08-13T16:53:02.679Z,32.92
2018-08-13T16:55:32.583Z,32.73
2018-08-13T16:58:02.823Z,32.58
2018-08-13T17:00:32.333Z,32.42
2018-08-13T17:03:01.504Z,32.23
2018-08-13T17:05:32.017Z,32.04
2018-08-13T17:08:00.661Z,31.88
2018-08-13T17:10:29.907Z,31.78
2018-08-13T17:12:59.331Z,31.62
2018-08-13T17:15:29.309Z,31.49
2018-08-13T17:17:59.011Z,31.35
2018-08-13T17:20:31.766Z,31.16
2018-08-13T17:23:00.431Z,31.15
2018-08-13T17:25:29.071Z,31.14
2018-08-13T17:27:57.669Z,31.08
2018-08-13T17:30:26.988Z,30.98
2018-08-13T17:32:57.190Z,30.83
2018-08-13T17:35:28.775Z,30.69
2018-08-13T17:37:57.465Z,30.56
2018-08-13T17:40:26.364Z,30.60
2018-08-13T17:42:55.878Z,30.45
2018-08-13T17:45:25.654Z,30.18
2018-08-13T17:47:54.245Z,29.99
2018-08-13T17:50:23.436Z,29.84
2018-08-13T17:52:52.108Z,29.74
2018-08-13T17:55:20.791Z,29.53
2018-08-13T17:57:49.460Z,29.57
2018-08-13T18:00:22.751Z,29.56
2018-08-13T18:02:51.300Z,29.60
2018-08-13T18:05:24.424Z,29.65
2018-08-13T18:07:53.928Z,29.57
2018-08-13T18:10:27.060Z,29.37
2018-08-13T18:12:56.356Z,29.10
2018-08-13T18:15:24.985Z,28.96
2018-08-13T18:17:53.607Z,28.71
2018-08-13T18:20:22.239Z,28.84
2018-08-13T18:22:50.840Z,28.52
2018-08-13T18:25:19.513Z,28.40
2018-08-13T18:27:49.441Z,28.28
2018-08-13T18:30:21.112Z,27.95
2018-08-13T18:32:49.811Z,27.80
2018-08-13T18:35:18.620Z,27.56
2018-08-13T18:37:47.416Z,27.27
2018-08-13T18:40:22.317Z,27.18
2018-08-13T18:42:50.999Z,27.28
2018-08-13T18:45:19.609Z,27.07
2018-08-13T18:47:48.999Z,27.25
2018-08-13T18:50:18.713Z,27.32
2018-08-13T18:52:47.492Z,27.40
2018-08-13T18:55:17.529Z,26.88
2018-08-13T18:57:46.567Z,26.88
2018-08-13T19:00:18.641Z,26.76
2018-08-13T19:02:47.241Z,26.47
2018-08-13T19:05:17.519Z,26.48
2018-08-13T19:07:46.823Z,26.65
2018-08-13T19:10:16.308Z,26.81
2018-08-13T19:12:44.913Z,26.70
2018-08-13T19:15:16.463Z,26.47
2018-08-13T19:17:45.071Z,25.65
2018-08-13T19:20:14.558Z,25.80
2018-08-13T19:22:43.668Z,25.80
2018-08-13T19:25:14.185Z,25.89
2018-08-13T19:27:42.994Z,25.83
2018-08-13T19:30:13.367Z,25.72
2018-08-13T19:32:41.952Z,25.35
2018-08-13T19:35:10.976Z,25.37
2018-08-13T19:37:40.203Z,25.28
2018-08-13T19:40:13.136Z,25.26
2018-08-13T19:42:41.882Z,25.08
2018-08-13T19:45:11.864Z,25.03
2018-08-13T19:47:40.687Z,24.89
2018-08-13T19:50:10.551Z,24.73
2018-08-13T19:52:40.175Z,24.57
2018-08-13T19:55:09.371Z,24.43
2018-08-13T19:57:37.984Z,24.40
2018-08-13T20:00:11.480Z,24.18
2018-08-13T20:02:40.101Z,23.92
2018-08-13T20:05:09.436Z,24.04
2018-08-13T20:07:38.819Z,24.05
2018-08-13T20:10:09.236Z,23.48
2018-08-13T20:12:38.855Z,23.56
2018-08-13T20:15:07.463Z,23.46
2018-08-13T20:17:36.081Z,23.40
2018-08-13T20:20:05.652Z,23.27
2018-08-13T20:22:34.272Z,23.38
2018-08-13T20:25:02.857Z,23.36
2018-08-13T20:27:31.406Z,23.01
2018-08-13T20:30:00.104Z,22.99
2018-08-13T20:32:28.822Z,23.10
2018-08-13T20:34:57.426Z,22.77
2018-08-13T20:37:26.004Z,22.46
2018-08-13T20:39:54.595Z,22.56
2018-08-13T20:42:23.201Z,22.63
2018-08-13T20:44:51.775Z,22.45
2018-08-13T20:47:20.656Z,22.08
2018-08-13T20:49:49.264Z,22.29
2018-08-13T20:55:36.339Z,22.23
2018-08-13T20:58:05.037Z,22.25
2018-08-13T21:00:33.633Z,22.21
2018-08-13T21:03:02.272Z,22.31
2018-08-13T21:05:30.843Z,22.14
2018-08-13T21:07:59.551Z,22.09
2018-08-13T21:10:28.239Z,22.08
2018-08-13T21:12:56.813Z,22.03
2018-08-13T21:15:25.390Z,21.79
2018-08-13T21:17:53.992Z,21.68
2018-08-13T21:20:25.831Z,21.78
2018-08-13T21:22:54.926Z,21.60
2018-08-13T21:25:23.588Z,21.31
2018-08-13T21:27:52.294Z,21.30
2018-08-13T21:30:20.895Z,21.15
2018-08-13T21:32:50.324Z,21.08
2018-08-13T21:35:21.727Z,21.41
2018-08-13T21:37:50.485Z,21.34
2018-08-13T21:40:19.119Z,21.18
2018-08-13T21:42:48.178Z,21.36
2018-08-13T21:45:16.744Z,21.40
2018-08-13T21:47:45.395Z,21.41
2018-08-13T21:50:16.637Z,21.26
2018-08-13T21:52:45.830Z,21.25
2018-08-13T21:55:14.504Z,20.97
2018-08-13T21:57:43.127Z,21.28
2018-08-13T22:00:30.585Z,21.43
2018-08-13T22:03:03.113Z,21.48
2018-08-13T22:05:31.831Z,21.56
2018-08-13T22:08:00.611Z,21.44
2018-08-13T22:10:29.233Z,21.61
2018-08-13T22:12:57.845Z,21.38
2018-08-13T22:15:27.680Z,21.22
2018-08-13T22:21:05.872Z,20.81
2018-08-13T22:23:34.508Z,20.96
2018-08-13T22:26:03.093Z,20.66
2018-08-13T22:28:31.715Z,20.68
2018-08-13T22:31:00.273Z,20.67
2018-08-13T22:33:28.840Z,20.42
2018-08-13T22:35:57.388Z,20.45
2018-08-13T22:38:26.047Z,20.50
2018-08-13T22:40:54.600Z,20.63
2018-08-13T22:43:23.160Z,20.61
2018-08-13T22:45:51.770Z,20.75
2018-08-13T22:48:20.317Z,20.91
2018-08-13T22:50:48.876Z,20.79
2018-08-13T22:53:17.416Z,20.49
2018-08-13T22:55:46.036Z,20.56
2018-08-13T22:58:14.592Z,20.58
2018-08-13T23:00:43.159Z,20.66
2018-08-13T23:03:11.752Z,20.55
2018-08-13T23:05:40.295Z,20.56
2018-08-13T23:08:08.914Z,20.68
2018-08-13T23:10:37.549Z,20.75
2018-08-13T23:13:12.498Z,20.69
2018-08-13T23:15:41.067Z,20.79
2018-08-13T23:18:09.678Z,20.88
2018-08-13T23:20:38.280Z,20.77
2018-08-13T23:23:06.877Z,20.62
2018-08-13T23:25:36.568Z,20.67
2018-08-13T23:28:07.591Z,20.67
2018-08-13T23:30:36.170Z,20.51
2018-08-13T23:33:05.592Z,20.50
2018-08-13T23:35:34.231Z,20.48
2018-08-13T23:38:02.987Z,20.43
2018-08-13T23:40:31.620Z,20.31
2018-08-13T23:43:00.262Z,20.30
2018-08-13T23:45:30.543Z,20.16
2018-08-13T23:48:00.046Z,20.14
2018-08-13T23:50:29.930Z,20.04
2018-08-13T23:53:00.762Z,20.06
2018-08-13T23:55:32.264Z,19.95
2018-08-13T23:58:01.061Z,19.84
